Aviation Digital Data Service (ADDS)

Output produced by METARs form (1026 UTC 19 February 2019)
found at http://www.aviationweather.gov/metar/data/
 
METAR text: FTTJ 191000Z 02009KT 020V090 6000 NSC 29/M06 Q1013 NOSIG
Conditions at: FTTJ (NDJAMENA (CIV/MI, TD) observed 1000 UTC 19 February 2019
Temperature: 29.0°C (84°F)
Dewpoint: -6.0°C (21°F) [RH = 10%]
Pressure (altimeter): 29.91 inches Hg (1013.0 mb)
Winds: from the NNE (20 degrees) at 10 MPH (9 knots; 4.6 m/s)
Visibility: 4 miles ( 6 km)
Ceiling: at least 12,000 feet AGL
Clouds: sky clear below 12,000 feet AGL
Weather: no significant weather observed at this time

METAR text: FTTJ 190900Z 03013KT 6000 NSC 26/M07 Q1013 NOSIG
Conditions at: FTTJ (NDJAMENA (CIV/MI, TD) observed 0900 UTC 19 February 2019
Temperature: 26.0°C (79°F)
Dewpoint: -7.0°C (19°F) [RH = 11%]
Pressure (altimeter): 29.91 inches Hg (1013.0 mb)
Winds: from the NNE (30 degrees) at 15 MPH (13 knots; 6.7 m/s)
Visibility: 4 miles ( 6 km)
Ceiling: at least 12,000 feet AGL
Clouds: sky clear below 12,000 feet AGL
Weather: no significant weather observed at this time

METAR text: FTTJ 190800Z 01012KT 5000 DU NSC 24/M08 Q1013 NOSIG
Conditions at: FTTJ (NDJAMENA (CIV/MI, TD) observed 0800 UTC 19 February 2019
Temperature: 24.0°C (75°F)
Dewpoint: -8.0°C (18°F) [RH = 11%]
Pressure (altimeter): 29.91 inches Hg (1013.0 mb)
Winds: from the N (10 degrees) at 14 MPH (12 knots; 6.2 m/s)
Visibility: 3 miles ( 5 km)
Ceiling: at least 12,000 feet AGL
Clouds: sky clear below 12,000 feet AGL
Weather: DU  (widespread dust)

METAR text: FTTJ 190700Z 01009KT 4000 DU NSC 21/M07 Q1012 NOSIG
Conditions at: FTTJ (NDJAMENA (CIV/MI, TD) observed 0700 UTC 19 February 2019
Temperature: 21.0°C (70°F)
Dewpoint: -7.0°C (19°F) [RH = 15%]
Pressure (altimeter): 29.88 inches Hg (1012.0 mb)
Winds: from the N (10 degrees) at 10 MPH (9 knots; 4.6 m/s)
Visibility: 2.49 miles (4.01 km)
Ceiling: at least 12,000 feet AGL
Clouds: sky clear below 12,000 feet AGL
Weather: DU  (widespread dust)

METAR text: FTTJ 190600Z 01005KT 3500 DU NSC 18/M08 Q1012 NOSIG
Conditions at: FTTJ (NDJAMENA (CIV/MI, TD) observed 0600 UTC 19 February 2019
Temperature: 18.0°C (64°F)
Dewpoint: -8.0°C (18°F) [RH = 16%]
Pressure (altimeter): 29.88 inches Hg (1012.0 mb)
Winds: from the N (10 degrees) at 6 MPH (5 knots; 2.6 m/s)
Visibility: 2.17 miles (3.49 km)
Ceiling: at least 12,000 feet AGL
Clouds: sky clear below 12,000 feet AGL
Weather: DU  (widespread dust)

METAR text: FTTJ 190500Z 36007KT 4000 DU NSC 18/M08 Q1011 NOSIG
Conditions at: FTTJ (NDJAMENA (CIV/MI, TD) observed 0500 UTC 19 February 2019
Temperature: 18.0°C (64°F)
Dewpoint: -8.0°C (18°F) [RH = 16%]
Pressure (altimeter): 29.85 inches Hg (1011.0 mb)
Winds: from the N (360 degrees) at 8 MPH (7 knots; 3.6 m/s)
Visibility: 2.49 miles (4.01 km)
Ceiling: at least 12,000 feet AGL
Clouds: sky clear below 12,000 feet AGL
Weather: DU  (widespread dust)

METAR text: FTTJ 190400Z 36007KT 3600 DU NSC 19/M08 Q1011 NOSIG
Conditions at: FTTJ (NDJAMENA (CIV/MI, TD) observed 0400 UTC 19 February 2019
Temperature: 19.0°C (66°F)
Dewpoint: -8.0°C (18°F) [RH = 15%]
Pressure (altimeter): 29.85 inches Hg (1011.0 mb)
Winds: from the N (360 degrees) at 8 MPH (7 knots; 3.6 m/s)
Visibility: 2.24 miles (3.60 km)
Ceiling: at least 12,000 feet AGL
Clouds: sky clear below 12,000 feet AGL
Weather: DU  (widespread dust)

METAR text: FTTJ 190300Z 01008KT 3500 DU NSC 20/M08 Q1011 NOSIG
Conditions at: FTTJ (NDJAMENA (CIV/MI, TD) observed 0300 UTC 19 February 2019
Temperature: 20.0°C (68°F)
Dewpoint: -8.0°C (18°F) [RH = 14%]
Pressure (altimeter): 29.85 inches Hg (1011.0 mb)
Winds: from the N (10 degrees) at 9 MPH (8 knots; 4.1 m/s)
Visibility: 2.17 miles (3.49 km)
Ceiling: at least 12,000 feet AGL
Clouds: sky clear below 12,000 feet AGL
Weather: DU  (widespread dust)

METAR text: FTTJ 190200Z 01007KT 3500 DU NSC 20/M07 Q1010 NOSIG
Conditions at: FTTJ (NDJAMENA (CIV/MI, TD) observed 0200 UTC 19 February 2019
Temperature: 20.0°C (68°F)
Dewpoint: -7.0°C (19°F) [RH = 15%]
Pressure (altimeter): 29.82 inches Hg (1010.0 mb)
Winds: from the N (10 degrees) at 8 MPH (7 knots; 3.6 m/s)
Visibility: 2.17 miles (3.49 km)
Ceiling: at least 12,000 feet AGL
Clouds: sky clear below 12,000 feet AGL
Weather: DU  (widespread dust)

METAR text: FTTJ 190100Z 01009KT 3500 DU NSC 22/M07 Q1011 NOSIG
Conditions at: FTTJ (NDJAMENA (CIV/MI, TD) observed 0100 UTC 19 February 2019
Temperature: 22.0°C (72°F)
Dewpoint: -7.0°C (19°F) [RH = 14%]
Pressure (altimeter): 29.85 inches Hg (1011.0 mb)
Winds: from the N (10 degrees) at 10 MPH (9 knots; 4.6 m/s)
Visibility: 2.17 miles (3.49 km)
Ceiling: at least 12,000 feet AGL
Clouds: sky clear below 12,000 feet AGL
Weather: DU  (widespread dust)

METAR text: FTTJ 190000Z 01008KT 3500 DU NSC 23/M07 Q1011 NOSIG
Conditions at: FTTJ (NDJAMENA (CIV/MI, TD) observed 0000 UTC 19 February 2019
Temperature: 23.0°C (73°F)
Dewpoint: -7.0°C (19°F) [RH = 13%]
Pressure (altimeter): 29.85 inches Hg (1011.0 mb)
Winds: from the N (10 degrees) at 9 MPH (8 knots; 4.1 m/s)
Visibility: 2.17 miles (3.49 km)
Ceiling: at least 12,000 feet AGL
Clouds: sky clear below 12,000 feet AGL
Weather: DU  (widespread dust)

METAR text: FTTJ 182300Z 01009KT 3500 DU NSC 24/M07 Q1012 NOSIG
Conditions at: FTTJ (NDJAMENA (CIV/MI, TD) observed 2300 UTC 18 February 2019
Temperature: 24.0°C (75°F)
Dewpoint: -7.0°C (19°F) [RH = 12%]
Pressure (altimeter): 29.88 inches Hg (1012.0 mb)
Winds: from the N (10 degrees) at 10 MPH (9 knots; 4.6 m/s)
Visibility: 2.17 miles (3.49 km)
Ceiling: at least 12,000 feet AGL
Clouds: sky clear below 12,000 feet AGL
Weather: DU  (widespread dust)

METAR text: FTTJ 182200Z 01010KT 8000 NSC 25/M07 Q1012 NOSIG
Conditions at: FTTJ (NDJAMENA (CIV/MI, TD) observed 2200 UTC 18 February 2019
Temperature: 25.0°C (77°F)
Dewpoint: -7.0°C (19°F) [RH = 11%]
Pressure (altimeter): 29.88 inches Hg (1012.0 mb)
Winds: from the N (10 degrees) at 12 MPH (10 knots; 5.1 m/s)
Visibility: 5 miles ( 8 km)
Ceiling: at least 12,000 feet AGL
Clouds: sky clear below 12,000 feet AGL
Weather: no significant weather observed at this time

METAR text: FTTJ 182100Z 01008KT 8000 NSC 25/M09 Q1012 NOSIG
Conditions at: FTTJ (NDJAMENA (CIV/MI, TD) observed 2100 UTC 18 February 2019
Temperature: 25.0°C (77°F)
Dewpoint: -9.0°C (16°F) [RH = 10%]
Pressure (altimeter): 29.88 inches Hg (1012.0 mb)
Winds: from the N (10 degrees) at 9 MPH (8 knots; 4.1 m/s)
Visibility: 5 miles ( 8 km)
Ceiling: at least 12,000 feet AGL
Clouds: sky clear below 12,000 feet AGL
Weather: no significant weather observed at this time

METAR text: FTTJ 182000Z 01008KT 8000 NSC 26/M07 Q1012 NOSIG
Conditions at: FTTJ (NDJAMENA (CIV/MI, TD) observed 2000 UTC 18 February 2019
Temperature: 26.0°C (79°F)
Dewpoint: -7.0°C (19°F) [RH = 11%]
Pressure (altimeter): 29.88 inches Hg (1012.0 mb)
Winds: from the N (10 degrees) at 9 MPH (8 knots; 4.1 m/s)
Visibility: 5 miles ( 8 km)
Ceiling: at least 12,000 feet AGL
Clouds: sky clear below 12,000 feet AGL
Weather: no significant weather observed at this time

METAR text: FTTJ 181900Z 01007KT 8000 NSC 26/M08 Q1011 NOSIG
Conditions at: FTTJ (NDJAMENA (CIV/MI, TD) observed 1900 UTC 18 February 2019
Temperature: 26.0°C (79°F)
Dewpoint: -8.0°C (18°F) [RH = 10%]
Pressure (altimeter): 29.85 inches Hg (1011.0 mb)
Winds: from the N (10 degrees) at 8 MPH (7 knots; 3.6 m/s)
Visibility: 5 miles ( 8 km)
Ceiling: at least 12,000 feet AGL
Clouds: sky clear below 12,000 feet AGL
Weather: no significant weather observed at this time

METAR text: FTTJ 181800Z 01006KT 8000 NSC 27/M07 Q1010 NOSIG
Conditions at: FTTJ (NDJAMENA (CIV/MI, TD) observed 1800 UTC 18 February 2019
Temperature: 27.0°C (81°F)
Dewpoint: -7.0°C (19°F) [RH = 10%]
Pressure (altimeter): 29.82 inches Hg (1010.0 mb)
Winds: from the N (10 degrees) at 7 MPH (6 knots; 3.1 m/s)
Visibility: 5 miles ( 8 km)
Ceiling: at least 12,000 feet AGL
Clouds: sky clear below 12,000 feet AGL
Weather: no significant weather observed at this time

METAR text: FTTJ 181700Z 36007KT 8000 NSC 31/M09 Q1009 NOSIG
Conditions at: FTTJ (NDJAMENA (CIV/MI, TD) observed 1700 UTC 18 February 2019
Temperature: 31.0°C (88°F)
Dewpoint: -9.0°C (16°F) [RH =  7%]
Pressure (altimeter): 29.79 inches Hg (1009.0 mb)
Winds: from the N (360 degrees) at 8 MPH (7 knots; 3.6 m/s)
Visibility: 5 miles ( 8 km)
Ceiling: at least 12,000 feet AGL
Clouds: sky clear below 12,000 feet AGL
Weather: no significant weather observed at this time

METAR text: FTTJ 181600Z 35009KT 350V050 CAVOK 34/M09 Q1009 NOSIG
Conditions at: FTTJ (NDJAMENA (CIV/MI, TD) observed 1600 UTC 18 February 2019
Temperature: 34.0°C (93°F)
Dewpoint: -9.0°C (16°F) [RH =  6%]
Pressure (altimeter): 29.79 inches Hg (1009.0 mb)
Winds: from the N (350 degrees) at 10 MPH (9 knots; 4.6 m/s)
Visibility: 6 or more miles (10+ km)
Ceiling: ceiling and visibility are OK
Clouds: unknown
Weather: no significant weather observed at this time

METAR text: FTTJ 181500Z 34008G19KT 340V070 CAVOK 34/M08 Q1009 NOSIG
Conditions at: FTTJ (NDJAMENA (CIV/MI, TD) observed 1500 UTC 18 February 2019
Temperature: 34.0°C (93°F)
Dewpoint: -8.0°C (18°F) [RH =  6%]
Pressure (altimeter): 29.79 inches Hg (1009.0 mb)
Winds: from the NNW (340 degrees) at 9 MPH (8 knots; 4.1 m/s)
gusting to 22 MPH (19 knots; 9.8 m/s)
Visibility: 6 or more miles (10+ km)
Ceiling: ceiling and visibility are OK
Clouds: unknown
Weather: no significant weather observed at this time

METAR text: FTTJ 181400Z 32006KT 320V040 CAVOK 34/M06 Q1010 NOSIG
Conditions at: FTTJ (NDJAMENA (CIV/MI, TD) observed 1400 UTC 18 February 2019
Temperature: 34.0°C (93°F)
Dewpoint: -6.0°C (21°F) [RH =  7%]
Pressure (altimeter): 29.82 inches Hg (1010.0 mb)
Winds: from the NW (320 degrees) at 7 MPH (6 knots; 3.1 m/s)
Visibility: 6 or more miles (10+ km)
Ceiling: ceiling and visibility are OK
Clouds: unknown
Weather: no significant weather observed at this time

METAR text: FTTJ 181300Z 35007KT 350V050 CAVOK 33/M07 Q1011 NOSIG
Conditions at: FTTJ (NDJAMENA (CIV/MI, TD) observed 1300 UTC 18 February 2019
Temperature: 33.0°C (91°F)
Dewpoint: -7.0°C (19°F) [RH =  7%]
Pressure (altimeter): 29.85 inches Hg (1011.0 mb)
Winds: from the N (350 degrees) at 8 MPH (7 knots; 3.6 m/s)
Visibility: 6 or more miles (10+ km)
Ceiling: ceiling and visibility are OK
Clouds: unknown
Weather: no significant weather observed at this time

METAR text: FTTJ 181200Z 04008KT CAVOK 32/M08 Q1012 NOSIG
Conditions at: FTTJ (NDJAMENA (CIV/MI, TD) observed 1200 UTC 18 February 2019
Temperature: 32.0°C (90°F)
Dewpoint: -8.0°C (18°F) [RH =  7%]
Pressure (altimeter): 29.88 inches Hg (1012.0 mb)
Winds: from the NE (40 degrees) at 9 MPH (8 knots; 4.1 m/s)
Visibility: 6 or more miles (10+ km)
Ceiling: ceiling and visibility are OK
Clouds: unknown
Weather: no significant weather observed at this time

METAR text: FTTJ 181100Z 01010KT 010V070 CAVOK 31/M06 Q1014 NOSIG
Conditions at: FTTJ (NDJAMENA (CIV/MI, TD) observed 1100 UTC 18 February 2019
Temperature: 31.0°C (88°F)
Dewpoint: -6.0°C (21°F) [RH =  9%]
Pressure (altimeter): 29.94 inches Hg (1014.0 mb)
Winds: from the N (10 degrees) at 12 MPH (10 knots; 5.1 m/s)
Visibility: 6 or more miles (10+ km)
Ceiling: ceiling and visibility are OK
Clouds: unknown
Weather: no significant weather observed at this time

METAR text: FTTJ 181000Z 01011KT CAVOK 29/M06 Q1015 NOSIG
Conditions at: FTTJ (NDJAMENA (CIV/MI, TD) observed 1000 UTC 18 February 2019
Temperature: 29.0°C (84°F)
Dewpoint: -6.0°C (21°F) [RH = 10%]
Pressure (altimeter): 29.97 inches Hg (1015.0 mb)
Winds: from the N (10 degrees) at 13 MPH (11 knots; 5.7 m/s)
Visibility: 6 or more miles (10+ km)
Ceiling: ceiling and visibility are OK
Clouds: unknown
Weather: no significant weather observed at this time

METAR text: FTTJ 180900Z 02014KT CAVOK 27/M06 Q1016 NOSIG
Conditions at: FTTJ (NDJAMENA (CIV/MI, TD) observed 0900 UTC 18 February 2019
Temperature: 27.0°C (81°F)
Dewpoint: -6.0°C (21°F) [RH = 11%]
Pressure (altimeter): 30.00 inches Hg (1016.0 mb)
Winds: from the NNE (20 degrees) at 16 MPH (14 knots; 7.2 m/s)
Visibility: 6 or more miles (10+ km)
Ceiling: ceiling and visibility are OK
Clouds: unknown
Weather: no significant weather observed at this time

METAR text: FTTJ 180800Z 02014KT CAVOK 23/M06 Q1015 NOSIG
Conditions at: FTTJ (NDJAMENA (CIV/MI, TD) observed 0800 UTC 18 February 2019
Temperature: 23.0°C (73°F)
Dewpoint: -6.0°C (21°F) [RH = 14%]
Pressure (altimeter): 29.97 inches Hg (1015.0 mb)
Winds: from the NNE (20 degrees) at 16 MPH (14 knots; 7.2 m/s)
Visibility: 6 or more miles (10+ km)
Ceiling: ceiling and visibility are OK
Clouds: unknown
Weather: no significant weather observed at this time

METAR text: FTTJ 180600Z 35008KT CAVOK 18/M06 Q1014 NOSIG
Conditions at: FTTJ (NDJAMENA (CIV/MI, TD) observed 0600 UTC 18 February 2019
Temperature: 18.0°C (64°F)
Dewpoint: -6.0°C (21°F) [RH = 19%]
Pressure (altimeter): 29.94 inches Hg (1014.0 mb)
Winds: from the N (350 degrees) at 9 MPH (8 knots; 4.1 m/s)
Visibility: 6 or more miles (10+ km)
Ceiling: ceiling and visibility are OK
Clouds: unknown
Weather: no significant weather observed at this time

METAR text: FTTJ 180500Z 35008KT CAVOK 18/M06 Q1013 NOSIG
Conditions at: FTTJ (NDJAMENA (CIV/MI, TD) observed 0500 UTC 18 February 2019
Temperature: 18.0°C (64°F)
Dewpoint: -6.0°C (21°F) [RH = 19%]
Pressure (altimeter): 29.91 inches Hg (1013.0 mb)
Winds: from the N (350 degrees) at 9 MPH (8 knots; 4.1 m/s)
Visibility: 6 or more miles (10+ km)
Ceiling: ceiling and visibility are OK
Clouds: unknown
Weather: no significant weather observed at this time

METAR text: FTTJ 180400Z 36006KT CAVOK 17/M06 Q1013 NOSIG
Conditions at: FTTJ (NDJAMENA (CIV/MI, TD) observed 0400 UTC 18 February 2019
Temperature: 17.0°C (63°F)
Dewpoint: -6.0°C (21°F) [RH = 20%]
Pressure (altimeter): 29.91 inches Hg (1013.0 mb)
Winds: from the N (360 degrees) at 7 MPH (6 knots; 3.1 m/s)
Visibility: 6 or more miles (10+ km)
Ceiling: ceiling and visibility are OK
Clouds: unknown
Weather: no significant weather observed at this time

METAR text: FTTJ 180300Z 01006KT CAVOK 18/M05 Q1013 NOSIG
Conditions at: FTTJ (NDJAMENA (CIV/MI, TD) observed 0300 UTC 18 February 2019
Temperature: 18.0°C (64°F)
Dewpoint: -5.0°C (23°F) [RH = 20%]
Pressure (altimeter): 29.91 inches Hg (1013.0 mb)
Winds: from the N (10 degrees) at 7 MPH (6 knots; 3.1 m/s)
Visibility: 6 or more miles (10+ km)
Ceiling: ceiling and visibility are OK
Clouds: unknown
Weather: no significant weather observed at this time

METAR text: FTTJ 180200Z 01006KT CAVOK 19/M06 Q1013 NOSIG
Conditions at: FTTJ (NDJAMENA (CIV/MI, TD) observed 0200 UTC 18 February 2019
Temperature: 19.0°C (66°F)
Dewpoint: -6.0°C (21°F) [RH = 18%]
Pressure (altimeter): 29.91 inches Hg (1013.0 mb)
Winds: from the N (10 degrees) at 7 MPH (6 knots; 3.1 m/s)
Visibility: 6 or more miles (10+ km)
Ceiling: ceiling and visibility are OK
Clouds: unknown
Weather: no significant weather observed at this time

METAR text: FTTJ 180100Z 01008KT CAVOK 20/M06 Q1013 NOSIG
Conditions at: FTTJ (NDJAMENA (CIV/MI, TD) observed 0100 UTC 18 February 2019
Temperature: 20.0°C (68°F)
Dewpoint: -6.0°C (21°F) [RH = 17%]
Pressure (altimeter): 29.91 inches Hg (1013.0 mb)
Winds: from the N (10 degrees) at 9 MPH (8 knots; 4.1 m/s)
Visibility: 6 or more miles (10+ km)
Ceiling: ceiling and visibility are OK
Clouds: unknown
Weather: no significant weather observed at this time

METAR text: FTTJ 180000Z 01009KT CAVOK 22/M06 Q1014 NOSIG
Conditions at: FTTJ (NDJAMENA (CIV/MI, TD) observed 0000 UTC 18 February 2019
Temperature: 22.0°C (72°F)
Dewpoint: -6.0°C (21°F) [RH = 15%]
Pressure (altimeter): 29.94 inches Hg (1014.0 mb)
Winds: from the N (10 degrees) at 10 MPH (9 knots; 4.6 m/s)
Visibility: 6 or more miles (10+ km)
Ceiling: ceiling and visibility are OK
Clouds: unknown
Weather: no significant weather observed at this time

METAR text: FTTJ 172300Z 36009KT CAVOK 22/M07 Q1015 NOSIG
Conditions at: FTTJ (NDJAMENA (CIV/MI, TD) observed 2300 UTC 17 February 2019
Temperature: 22.0°C (72°F)
Dewpoint: -7.0°C (19°F) [RH = 14%]
Pressure (altimeter): 29.97 inches Hg (1015.0 mb)
Winds: from the N (360 degrees) at 10 MPH (9 knots; 4.6 m/s)
Visibility: 6 or more miles (10+ km)
Ceiling: ceiling and visibility are OK
Clouds: unknown
Weather: no significant weather observed at this time

Forecast for: FTTJ (NDJAMENA (CIV/MI, TD)
Text: TAF FTTJ 190500Z 1906/2012 02010KT 2500 DU NSC
Forecast period: 0600 to 0700 UTC 19 February 2019
Forecast type: FROM: standard forecast or significant change
Winds: from the NNE (20 degrees) at 12 MPH (10 knots; 5.1 m/s)
Visibility: 1.55 miles (2.49 km)
Ceiling: unknown
Clouds: missing
Weather: DU  (widespread dust)
Text: BECMG 1907/1910 7000 NSW
Forecast period: 0700 UTC 19 February 2019 to 1200 UTC 20 February 2019
Forecast type: BECOMING: Conditions expected to become as follows by 1000 UTC 19 February 2019
Winds: from the NNE (20 degrees) at 12 MPH (10 knots; 5.1 m/s)
Visibility: 4 miles (7 km)
Ceiling: unknown
Clouds: missing
Weather: NSW  (no significant weather)
Text: TEMPO 2002/2008 3000 DU
Forecast period: 0200 to 0800 UTC 20 February 2019
Forecast type: TEMPORARY: The following changes expected for less than half the time period
Visibility: 1.86 miles (2.99 km)
Ceiling: unknown
Clouds: missing
Weather: DU  (widespread dust)